HEBA/HBE METAR and TAF weather

Enter ICAO airport designator
Station Type Date Time Source
HEBA METAR 2024/05/28 23:00 UTC NOAA

HEBA 282300Z 32005KT CAVOK 19/16 Q1013 NOSIG


Station Type Date Time Source
HEBA Decoded METAR 2024/05/28 23:00 UTC NOAA

Alexandria Borg El Arab, Egypt (HEBA) 31-31N 030-10E
May 28, 2024 - 07:00 PM EDT / 2024.05.28 2300 UTC
Wind: from the NW (320 degrees) at 6 MPH (5 KT):0
Visibility: greater than 7 mile(s):0
Temperature: 66 F (19 C)
Dew Point: 60 F (16 C)
Relative Humidity: 82%
Pressure (altimeter): 29.91 in. Hg (1013 hPa)
ob: HEBA 282300Z 32005KT CAVOK 19/16 Q1013 NOSIG
cycle: 23

Station Type Date Time Source
HEBA TAF 2024/05/28 18:42 UTC NOAA